sensor_id;sensor_type;location;lat;lon;timestamp;temperature;humidity
78696;SHT31;68030;51.980;5.646;2023-03-01T10:25:50;10.2;30.6
78696;SHT31;68030;51.980;5.646;2023-03-01T10:28:27;10.0;30.9
78696;SHT31;68030;51.980;5.646;2023-03-01T10:30:59;9.7;31.5
78696;SHT31;68030;51.980;5.646;2023-03-01T10:33:32;9.5;32.4
78696;SHT31;68030;51.980;5.646;2023-03-01T10:36:06;9.3;32.3
78696;SHT31;68030;51.980;5.646;2023-03-01T10:38:50;9.2;32.0
78696;SHT31;68030;51.980;5.646;2023-03-01T10:41:23;9.0;32.5
78696;SHT31;68030;51.980;5.646;2023-03-01T10:43:54;8.9;32.6
78696;SHT31;68030;51.980;5.646;2023-03-01T10:46:29;8.8;33.1
78696;SHT31;68030;51.980;5.646;2023-03-01T10:49:14;8.8;33.1
78696;SHT31;68030;51.980;5.646;2023-03-01T10:51:46;8.7;34.0
78696;SHT31;68030;51.980;5.646;2023-03-01T10:54:22;8.7;33.3
78696;SHT31;68030;51.980;5.646;2023-03-01T10:56:55;8.6;33.1
78696;SHT31;68030;51.980;5.646;2023-03-01T10:59:29;8.6;34.7
78696;SHT31;68030;51.980;5.646;2023-03-01T11:02:09;8.6;34.0
78696;SHT31;68030;51.980;5.646;2023-03-01T11:04:38;8.6;33.9
78696;SHT31;68030;51.980;5.646;2023-03-01T11:07:09;8.6;34.0
78696;SHT31;68030;51.980;5.646;2023-03-01T11:09:39;8.6;33.2
78696;SHT31;68030;51.980;5.646;2023-03-01T11:12:14;8.6;33.7
78696;SHT31;68030;51.980;5.646;2023-03-01T11:14:50;8.5;34.2
78696;SHT31;68030;51.980;5.646;2023-03-01T11:17:27;8.5;34.6
78696;SHT31;68030;51.980;5.646;2023-03-01T11:20:13;8.5;34.2
78696;SHT31;68030;51.980;5.646;2023-03-01T11:22:47;8.4;34.1
78696;SHT31;68030;51.980;5.646;2023-03-01T11:25:20;8.4;34.3
78696;SHT31;68030;51.980;5.646;2023-03-01T11:27:57;8.4;35.2
78696;SHT31;68030;51.980;5.646;2023-03-01T11:30:35;8.4;35.0
78696;SHT31;68030;51.980;5.646;2023-03-01T11:33:15;8.5;34.8
78696;SHT31;68030;51.980;5.646;2023-03-01T11:35:56;8.6;35.5
78696;SHT31;68030;51.980;5.646;2023-03-01T11:38:32;8.7;33.6
78696;SHT31;68030;51.980;5.646;2023-03-01T11:41:08;8.8;32.3
78696;SHT31;68030;51.980;5.646;2023-03-01T11:43:51;8.9;33.4
78696;SHT31;68030;51.980;5.646;2023-03-01T11:46:58;9.2;31.9
78696;SHT31;68030;51.980;5.646;2023-03-01T11:49:54;9.4;31.7
78696;SHT31;68030;51.980;5.646;2023-03-01T11:52:44;9.7;31.3
78696;SHT31;68030;51.980;5.646;2023-03-01T11:55:46;9.8;31.6
78696;SHT31;68030;51.980;5.646;2023-03-01T11:58:29;10.0;31.5
78696;SHT31;68030;51.980;5.646;2023-03-01T12:01:15;10.2;31.8
78696;SHT31;68030;51.980;5.646;2023-03-01T12:04:07;10.2;31.3
78696;SHT31;68030;51.980;5.646;2023-03-01T12:06:52;10.3;31.6
78696;SHT31;68030;51.980;5.646;2023-03-01T12:09:51;10.2;31.4
78696;SHT31;68030;51.980;5.646;2023-03-01T12:12:46;10.2;32.2
78696;SHT31;68030;51.980;5.646;2023-03-01T12:15:36;10.2;31.9
78696;SHT31;68030;51.980;5.646;2023-03-01T12:18:47;10.2;31.5
78696;SHT31;68030;51.980;5.646;2023-03-01T12:21:33;10.1;32.0
78696;SHT31;68030;51.980;5.646;2023-03-01T12:24:46;10.1;31.7
78696;SHT31;68030;51.980;5.646;2023-03-01T12:27:37;10.1;31.0
78696;SHT31;68030;51.980;5.646;2023-03-01T12:30:24;10.2;31.5
78696;SHT31;68030;51.980;5.646;2023-03-01T12:33:12;10.1;31.6
78696;SHT31;68030;51.980;5.646;2023-03-01T12:35:55;10.1;31.9
78696;SHT31;68030;51.980;5.646;2023-03-01T12:38:42;10.1;31.6
78696;SHT31;68030;51.980;5.646;2023-03-01T12:41:31;10.1;31.0
78696;SHT31;68030;51.980;5.646;2023-03-01T12:44:21;10.1;31.9
78696;SHT31;68030;51.980;5.646;2023-03-01T12:47:07;10.1;31.7
78696;SHT31;68030;51.980;5.646;2023-03-01T12:49:45;10.1;32.0
78696;SHT31;68030;51.980;5.646;2023-03-01T12:52:24;10.1;31.7
78696;SHT31;68030;51.980;5.646;2023-03-01T12:55:02;10.1;31.6
78696;SHT31;68030;51.980;5.646;2023-03-01T12:57:45;10.1;31.5
78696;SHT31;68030;51.980;5.646;2023-03-01T13:00:31;10.1;31.3
78696;SHT31;68030;51.980;5.646;2023-03-01T13:03:14;10.1;31.0
78696;SHT31;68030;51.980;5.646;2023-03-01T13:06:02;10.2;31.0
78696;SHT31;68030;51.980;5.646;2023-03-01T13:08:41;10.2;30.8
78696;SHT31;68030;51.980;5.646;2023-03-01T13:11:19;10.2;31.1
78696;SHT31;68030;51.980;5.646;2023-03-01T13:16:58;10.4;31.4
78696;SHT31;68030;51.980;5.646;2023-03-01T13:19:29;10.6;31.4
78696;SHT31;68030;51.980;5.646;2023-03-01T13:22:36;10.7;31.0
78696;SHT31;68030;51.980;5.646;2023-03-01T13:25:19;10.9;30.5
78696;SHT31;68030;51.980;5.646;2023-03-01T13:27:50;11.1;30.2
78696;SHT31;68030;51.980;5.646;2023-03-01T13:39:31;11.5;29.8
78696;SHT31;68030;51.980;5.646;2023-03-01T13:42:38;11.6;29.7
78696;SHT31;68030;51.980;5.646;2023-03-01T13:45:38;11.7;29.3
78696;SHT31;68030;51.980;5.646;2023-03-01T13:48:21;11.7;28.8
78696;SHT31;68030;51.980;5.646;2023-03-01T13:50:55;11.7;28.9
78696;SHT31;68030;51.980;5.646;2023-03-01T13:53:39;11.6;28.9
78696;SHT31;68030;51.980;5.646;2023-03-01T13:56:17;11.6;29.0
78696;SHT31;68030;51.980;5.646;2023-03-01T13:58:53;11.6;29.1
78696;SHT31;68030;51.980;5.646;2023-03-01T14:01:29;11.5;29.1
78696;SHT31;68030;51.980;5.646;2023-03-01T14:04:00;11.5;29.7
78696;SHT31;68030;51.980;5.646;2023-03-01T14:06:34;11.5;29.0
78696;SHT31;68030;51.980;5.646;2023-03-01T14:09:14;11.4;28.9
78696;SHT31;68030;51.980;5.646;2023-03-01T14:15:08;11.4;29.3
78696;SHT31;68030;51.980;5.646;2023-03-01T14:18:00;11.4;29.1
78696;SHT31;68030;51.980;5.646;2023-03-01T14:20:40;11.5;28.5
78696;SHT31;68030;51.980;5.646;2023-03-01T14:23:23;11.6;29.4
78696;SHT31;68030;51.980;5.646;2023-03-01T14:26:00;11.6;28.5
78696;SHT31;68030;51.980;5.646;2023-03-01T14:28:41;11.7;29.0
78696;SHT31;68030;51.980;5.646;2023-03-01T14:31:42;11.8;28.3
78696;SHT31;68030;51.980;5.646;2023-03-01T14:34:24;11.9;27.9
78696;SHT31;68030;51.980;5.646;2023-03-01T14:37:17;11.9;28.4
78696;SHT31;68030;51.980;5.646;2023-03-01T14:39:54;12.0;27.9
78696;SHT31;68030;51.980;5.646;2023-03-01T14:42:34;12.1;27.5
78696;SHT31;68030;51.980;5.646;2023-03-01T14:45:15;12.1;27.4
78696;SHT31;68030;51.980;5.646;2023-03-01T14:50:40;12.1;27.6
78696;SHT31;68030;51.980;5.646;2023-03-01T14:53:19;12.1;28.1
78696;SHT31;68030;51.980;5.646;2023-03-01T14:55:54;12.0;27.9
78696;SHT31;68030;51.980;5.646;2023-03-01T14:58:28;12.0;28.3
78696;SHT31;68030;51.980;5.646;2023-03-01T15:01:01;11.9;28.4
78696;SHT31;68030;51.980;5.646;2023-03-01T15:03:36;11.8;27.7
78696;SHT31;68030;51.980;5.646;2023-03-01T15:06:08;11.7;27.9
78696;SHT31;68030;51.980;5.646;2023-03-01T15:08:44;11.6;28.0
78696;SHT31;68030;51.980;5.646;2023-03-01T15:11:21;11.5;27.9
78696;SHT31;68030;51.980;5.646;2023-03-01T15:13:54;11.4;28.5
78696;SHT31;68030;51.980;5.646;2023-03-01T15:16:26;11.3;28.7
78696;SHT31;68030;51.980;5.646;2023-03-01T15:18:58;11.3;28.5
78696;SHT31;68030;51.980;5.646;2023-03-01T15:21:37;11.2;28.3
78696;SHT31;68030;51.980;5.646;2023-03-01T15:24:18;11.1;29.0
78696;SHT31;68030;51.980;5.646;2023-03-01T15:26:54;11.0;28.8
78696;SHT31;68030;51.980;5.646;2023-03-01T15:29:27;10.9;28.9
78696;SHT31;68030;51.980;5.646;2023-03-01T15:32:01;10.9;29.1
78696;SHT31;68030;51.980;5.646;2023-03-01T15:34:34;10.8;28.8
78696;SHT31;68030;51.980;5.646;2023-03-01T15:37:35;10.8;28.7
78696;SHT31;68030;51.980;5.646;2023-03-01T15:39:43;10.7;28.6
78696;SHT31;68030;51.980;5.646;2023-03-01T15:42:40;10.6;28.6
78696;SHT31;68030;51.980;5.646;2023-03-01T15:45:21;10.6;29.3
78696;SHT31;68030;51.980;5.646;2023-03-01T15:47:50;10.5;29.5
78696;SHT31;68030;51.980;5.646;2023-03-01T15:50:29;10.5;29.4
78696;SHT31;68030;51.980;5.646;2023-03-01T15:53:05;10.4;29.4
78696;SHT31;68030;51.980;5.646;2023-03-01T15:55:41;10.4;28.9
78696;SHT31;68030;51.980;5.646;2023-03-01T15:58:20;10.5;29.0
78696;SHT31;68030;51.980;5.646;2023-03-01T16:00:53;10.5;28.8
78696;SHT31;68030;51.980;5.646;2023-03-01T16:03:29;10.5;28.9
78696;SHT31;68030;51.980;5.646;2023-03-01T16:06:02;10.4;29.2
78696;SHT31;68030;51.980;5.646;2023-03-01T16:08:34;10.4;29.4
78696;SHT31;68030;51.980;5.646;2023-03-01T16:11:09;10.4;29.5
78696;SHT31;68030;51.980;5.646;2023-03-01T16:13:43;10.4;29.6
78696;SHT31;68030;51.980;5.646;2023-03-01T16:16:16;10.4;29.1
78696;SHT31;68030;51.980;5.646;2023-03-01T16:18:47;10.4;28.7
78696;SHT31;68030;51.980;5.646;2023-03-01T16:21:20;10.4;29.0
78696;SHT31;68030;51.980;5.646;2023-03-01T16:23:51;10.3;28.7
78696;SHT31;68030;51.980;5.646;2023-03-01T16:26:21;10.3;29.4
78696;SHT31;68030;51.980;5.646;2023-03-01T16:28:56;10.3;29.0
78696;SHT31;68030;51.980;5.646;2023-03-01T16:31:27;10.2;28.9
78696;SHT31;68030;51.980;5.646;2023-03-01T16:33:59;10.2;29.2
78696;SHT31;68030;51.980;5.646;2023-03-01T16:36:29;10.2;29.4
78696;SHT31;68030;51.980;5.646;2023-03-01T16:39:03;10.2;29.6
78696;SHT31;68030;51.980;5.646;2023-03-01T16:41:40;10.2;29.8
78696;SHT31;68030;51.980;5.646;2023-03-01T16:44:14;10.3;30.0
78696;SHT31;68030;51.980;5.646;2023-03-01T16:47:19;10.4;29.6
78696;SHT31;68030;51.980;5.646;2023-03-01T16:50:54;10.6;29.6
78696;SHT31;68030;51.980;5.646;2023-03-01T16:55:36;10.8;29.4
78696;SHT31;68030;51.980;5.646;2023-03-01T16:58:14;10.8;29.6
78696;SHT31;68030;51.980;5.646;2023-03-01T17:00:47;10.9;29.6
78696;SHT31;68030;51.980;5.646;2023-03-01T17:03:28;10.9;29.5
78696;SHT31;68030;51.980;5.646;2023-03-01T17:06:05;10.9;29.7
78696;SHT31;68030;51.980;5.646;2023-03-01T17:08:51;10.8;30.4
78696;SHT31;68030;51.980;5.646;2023-03-01T17:11:26;10.7;30.7
78696;SHT31;68030;51.980;5.646;2023-03-01T17:13:59;10.6;31.1
78696;SHT31;68030;51.980;5.646;2023-03-01T17:16:39;10.5;31.6
78696;SHT31;68030;51.980;5.646;2023-03-01T17:19:11;10.4;31.9
78696;SHT31;68030;51.980;5.646;2023-03-01T17:21:45;10.3;32.3
78696;SHT31;68030;51.980;5.646;2023-03-01T17:24:23;10.1;32.8
78696;SHT31;68030;51.980;5.646;2023-03-01T17:26:56;10.1;33.2
78696;SHT31;68030;51.980;5.646;2023-03-01T17:29:26;10.1;33.4
78696;SHT31;68030;51.980;5.646;2023-03-01T17:31:58;10.0;33.5
78696;SHT31;68030;51.980;5.646;2023-03-01T17:34:33;10.0;33.6
78696;SHT31;68030;51.980;5.646;2023-03-01T17:37:04;9.9;33.8
78696;SHT31;68030;51.980;5.646;2023-03-01T17:39:36;9.9;34.2
78696;SHT31;68030;51.980;5.646;2023-03-01T17:42:13;9.8;34.2
78696;SHT31;68030;51.980;5.646;2023-03-01T17:44:44;9.7;34.4
78696;SHT31;68030;51.980;5.646;2023-03-01T17:47:15;9.7;34.5
78696;SHT31;68030;51.980;5.646;2023-03-01T17:49:45;9.6;34.7
78696;SHT31;68030;51.980;5.646;2023-03-01T17:52:15;9.5;34.8
78696;SHT31;68030;51.980;5.646;2023-03-01T17:54:44;9.5;35.1
78696;SHT31;68030;51.980;5.646;2023-03-01T17:57:24;9.4;35.5
78696;SHT31;68030;51.980;5.646;2023-03-01T18:00:00;9.4;35.7
78696;SHT31;68030;51.980;5.646;2023-03-01T18:02:32;9.4;35.8
78696;SHT31;68030;51.980;5.646;2023-03-01T18:05:17;9.4;35.7
78696;SHT31;68030;51.980;5.646;2023-03-01T18:07:52;9.4;35.7
78696;SHT31;68030;51.980;5.646;2023-03-01T18:10:35;9.3;36.0
78696;SHT31;68030;51.980;5.646;2023-03-01T18:13:09;9.2;36.0
78696;SHT31;68030;51.980;5.646;2023-03-01T18:15:42;9.1;36.4
78696;SHT31;68030;51.980;5.646;2023-03-01T18:18:20;9.0;36.5
78696;SHT31;68030;51.980;5.646;2023-03-01T18:20:58;8.9;36.9
78696;SHT31;68030;51.980;5.646;2023-03-01T18:23:32;8.9;37.0
78696;SHT31;68030;51.980;5.646;2023-03-01T18:26:07;8.8;37.0
78696;SHT31;68030;51.980;5.646;2023-03-01T18:28:41;8.7;37.3
78696;SHT31;68030;51.980;5.646;2023-03-01T18:31:20;8.6;37.5
78696;SHT31;68030;51.980;5.646;2023-03-01T18:34:03;8.6;38.2
78696;SHT31;68030;51.980;5.646;2023-03-01T18:37:17;8.5;37.9
78696;SHT31;68030;51.980;5.646;2023-03-01T18:39:54;8.5;37.9
78696;SHT31;68030;51.980;5.646;2023-03-01T18:42:29;8.4;38.1
78696;SHT31;68030;51.980;5.646;2023-03-01T18:45:04;8.4;38.3
78696;SHT31;68030;51.980;5.646;2023-03-01T18:47:38;8.4;39.0
78696;SHT31;68030;51.980;5.646;2023-03-01T18:50:33;8.5;38.7
78696;SHT31;68030;51.980;5.646;2023-03-01T18:53:05;8.5;38.7
78696;SHT31;68030;51.980;5.646;2023-03-01T18:55:42;8.6;38.3
78696;SHT31;68030;51.980;5.646;2023-03-01T18:58:13;8.7;38.1
78696;SHT31;68030;51.980;5.646;2023-03-01T19:00:47;8.8;37.5
78696;SHT31;68030;51.980;5.646;2023-03-01T19:03:18;8.7;37.4
78696;SHT31;68030;51.980;5.646;2023-03-01T19:05:51;8.6;37.5
78696;SHT31;68030;51.980;5.646;2023-03-01T19:08:23;8.5;37.7
78696;SHT31;68030;51.980;5.646;2023-03-01T19:10:58;8.4;38.0
78696;SHT31;68030;51.980;5.646;2023-03-01T19:13:28;8.3;38.1
78696;SHT31;68030;51.980;5.646;2023-03-01T19:16:04;8.2;38.5
78696;SHT31;68030;51.980;5.646;2023-03-01T19:18:39;8.0;38.8
78696;SHT31;68030;51.980;5.646;2023-03-01T19:21:11;7.9;38.9
78696;SHT31;68030;51.980;5.646;2023-03-01T19:23:40;7.8;39.2
78696;SHT31;68030;51.980;5.646;2023-03-01T19:26:18;7.7;39.5
78696;SHT31;68030;51.980;5.646;2023-03-01T19:28:49;7.6;39.8
78696;SHT31;68030;51.980;5.646;2023-03-01T19:31:24;7.5;39.9
78696;SHT31;68030;51.980;5.646;2023-03-01T19:33:56;7.4;40.3
78696;SHT31;68030;51.980;5.646;2023-03-01T19:36:29;7.3;40.4
78696;SHT31;68030;51.980;5.646;2023-03-01T19:39:04;7.2;40.7
78696;SHT31;68030;51.980;5.646;2023-03-01T19:41:37;7.1;40.9
78696;SHT31;68030;51.980;5.646;2023-03-01T19:44:07;7.0;41.2
78696;SHT31;68030;51.980;5.646;2023-03-01T19:46:38;6.9;41.4
78696;SHT31;68030;51.980;5.646;2023-03-01T19:49:10;6.8;41.7
78696;SHT31;68030;51.980;5.646;2023-03-01T19:51:47;6.7;41.9
78696;SHT31;68030;51.980;5.646;2023-03-01T19:54:20;6.7;42.1
78696;SHT31;68030;51.980;5.646;2023-03-01T19:56:53;6.6;42.2
78696;SHT31;68030;51.980;5.646;2023-03-01T19:59:27;6.6;42.3
78696;SHT31;68030;51.980;5.646;2023-03-01T20:02:00;6.5;42.5
78696;SHT31;68030;51.980;5.646;2023-03-01T20:04:31;6.5;42.6
78696;SHT31;68030;51.980;5.646;2023-03-01T20:07:02;6.5;42.8
78696;SHT31;68030;51.980;5.646;2023-03-01T20:09:39;6.5;42.9
78696;SHT31;68030;51.980;5.646;2023-03-01T20:12:11;6.6;42.6
78696;SHT31;68030;51.980;5.646;2023-03-01T20:14:52;6.7;42.6
78696;SHT31;68030;51.980;5.646;2023-03-01T20:17:29;6.8;42.4
78696;SHT31;68030;51.980;5.646;2023-03-01T20:20:03;6.9;41.9
78696;SHT31;68030;51.980;5.646;2023-03-01T20:22:34;6.9;41.5
78696;SHT31;68030;51.980;5.646;2023-03-01T20:25:06;6.9;41.4
78696;SHT31;68030;51.980;5.646;2023-03-01T20:27:37;6.8;41.4
78696;SHT31;68030;51.980;5.646;2023-03-01T20:30:08;6.8;41.5
78696;SHT31;68030;51.980;5.646;2023-03-01T20:32:41;6.7;41.8
78696;SHT31;68030;51.980;5.646;2023-03-01T20:35:14;6.7;41.9
78696;SHT31;68030;51.980;5.646;2023-03-01T20:37:50;6.6;42.2
78696;SHT31;68030;51.980;5.646;2023-03-01T20:40:23;6.5;42.3
78696;SHT31;68030;51.980;5.646;2023-03-01T20:42:56;6.4;42.5
78696;SHT31;68030;51.980;5.646;2023-03-01T20:45:30;6.4;42.7
78696;SHT31;68030;51.980;5.646;2023-03-01T20:47:59;6.3;42.9
78696;SHT31;68030;51.980;5.646;2023-03-01T20:50:29;6.2;42.9
78696;SHT31;68030;51.980;5.646;2023-03-01T20:53:04;6.2;43.1
78696;SHT31;68030;51.980;5.646;2023-03-01T20:55:35;6.1;43.2
78696;SHT31;68030;51.980;5.646;2023-03-01T20:58:06;6.1;43.5
78696;SHT31;68030;51.980;5.646;2023-03-01T21:00:40;6.0;43.5
78696;SHT31;68030;51.980;5.646;2023-03-01T21:03:25;6.0;43.9
78696;SHT31;68030;51.980;5.646;2023-03-01T21:05:57;6.0;43.7
78696;SHT31;68030;51.980;5.646;2023-03-01T21:08:43;6.0;43.7
78696;SHT31;68030;51.980;5.646;2023-03-01T21:11:23;6.0;44.0
78696;SHT31;68030;51.980;5.646;2023-03-01T21:13:58;6.0;44.0
78696;SHT31;68030;51.980;5.646;2023-03-01T21:16:33;6.1;44.0
78696;SHT31;68030;51.980;5.646;2023-03-01T21:19:10;6.2;43.8
78696;SHT31;68030;51.980;5.646;2023-03-01T21:21:42;6.3;43.7
78696;SHT31;68030;51.980;5.646;2023-03-01T21:24:14;6.4;43.6
78696;SHT31;68030;51.980;5.646;2023-03-01T21:26:49;6.5;43.3
78696;SHT31;68030;51.980;5.646;2023-03-01T21:29:24;6.6;43.0
78696;SHT31;68030;51.980;5.646;2023-03-01T21:32:02;6.6;42.9
78696;SHT31;68030;51.980;5.646;2023-03-01T21:34:37;6.6;42.8
78696;SHT31;68030;51.980;5.646;2023-03-01T21:37:11;6.7;42.6
78696;SHT31;68030;51.980;5.646;2023-03-01T21:39:45;6.7;42.6
78696;SHT31;68030;51.980;5.646;2023-03-01T21:42:16;6.7;42.5
78696;SHT31;68030;51.980;5.646;2023-03-01T21:44:51;6.8;42.5
78696;SHT31;68030;51.980;5.646;2023-03-01T21:47:27;6.8;42.7
78696;SHT31;68030;51.980;5.646;2023-03-01T21:50:14;6.8;42.7
78696;SHT31;68030;51.980;5.646;2023-03-01T21:52:49;6.8;42.7
78696;SHT31;68030;51.980;5.646;2023-03-01T21:55:24;6.8;42.6
78696;SHT31;68030;51.980;5.646;2023-03-01T21:57:56;6.9;42.5
78696;SHT31;68030;51.980;5.646;2023-03-01T22:00:28;6.9;42.2
78696;SHT31;68030;51.980;5.646;2023-03-01T22:02:59;7.0;42.0
78696;SHT31;68030;51.980;5.646;2023-03-01T22:06:00;6.9;42.1
78696;SHT31;68030;51.980;5.646;2023-03-01T22:08:39;6.9;42.3
78696;SHT31;68030;51.980;5.646;2023-03-01T22:11:15;7.0;42.4
78696;SHT31;68030;51.980;5.646;2023-03-01T22:14:01;7.0;42.4
78696;SHT31;68030;51.980;5.646;2023-03-01T22:16:48;7.1;42.3
78696;SHT31;68030;51.980;5.646;2023-03-01T22:19:24;7.1;42.0
78696;SHT31;68030;51.980;5.646;2023-03-01T22:21:55;7.1;42.0
78696;SHT31;68030;51.980;5.646;2023-03-01T22:24:25;7.0;42.1
78696;SHT31;68030;51.980;5.646;2023-03-01T22:26:56;7.0;42.4
78696;SHT31;68030;51.980;5.646;2023-03-01T22:29:30;6.9;42.7
78696;SHT31;68030;51.980;5.646;2023-03-01T22:32:05;6.9;42.7
78696;SHT31;68030;51.980;5.646;2023-03-01T22:34:41;6.8;42.9
78696;SHT31;68030;51.980;5.646;2023-03-01T22:37:25;6.8;43.1
78696;SHT31;68030;51.980;5.646;2023-03-01T22:40:16;6.8;43.1
78696;SHT31;68030;51.980;5.646;2023-03-01T22:42:48;6.8;43.2
78696;SHT31;68030;51.980;5.646;2023-03-01T22:45:37;6.8;43.1
78696;SHT31;68030;51.980;5.646;2023-03-01T22:48:16;6.7;43.3
78696;SHT31;68030;51.980;5.646;2023-03-01T22:50:50;6.6;43.8
78696;SHT31;68030;51.980;5.646;2023-03-01T22:53:21;6.5;44.1
78696;SHT31;68030;51.980;5.646;2023-03-01T22:55:52;6.4;44.4
78696;SHT31;68030;51.980;5.646;2023-03-01T22:58:23;6.3;44.8
78696;SHT31;68030;51.980;5.646;2023-03-01T23:00:53;6.1;45.3
78696;SHT31;68030;51.980;5.646;2023-03-01T23:03:22;6.0;46.0
78696;SHT31;68030;51.980;5.646;2023-03-01T23:05:59;5.9;46.8
78696;SHT31;68030;51.980;5.646;2023-03-01T23:08:30;5.9;47.2
78696;SHT31;68030;51.980;5.646;2023-03-01T23:11:01;5.9;47.5
78696;SHT31;68030;51.980;5.646;2023-03-01T23:13:35;5.9;47.8
78696;SHT31;68030;51.980;5.646;2023-03-01T23:16:11;5.9;48.0
78696;SHT31;68030;51.980;5.646;2023-03-01T23:18:45;5.9;48.4
78696;SHT31;68030;51.980;5.646;2023-03-01T23:21:17;5.9;48.8
78696;SHT31;68030;51.980;5.646;2023-03-01T23:23:48;5.9;49.2
78696;SHT31;68030;51.980;5.646;2023-03-01T23:26:24;6.0;49.5
78696;SHT31;68030;51.980;5.646;2023-03-01T23:28:57;6.0;49.4
78696;SHT31;68030;51.980;5.646;2023-03-01T23:31:33;6.0;49.2
78696;SHT31;68030;51.980;5.646;2023-03-01T23:34:05;6.0;49.7
78696;SHT31;68030;51.980;5.646;2023-03-01T23:36:34;6.0;50.2
78696;SHT31;68030;51.980;5.646;2023-03-01T23:39:12;5.9;50.8
78696;SHT31;68030;51.980;5.646;2023-03-01T23:41:42;5.9;51.2
78696;SHT31;68030;51.980;5.646;2023-03-01T23:44:14;5.8;52.0
78696;SHT31;68030;51.980;5.646;2023-03-01T23:46:46;5.8;52.6
78696;SHT31;68030;51.980;5.646;2023-03-01T23:49:19;5.7;53.0
78696;SHT31;68030;51.980;5.646;2023-03-01T23:51:51;5.6;53.7
78696;SHT31;68030;51.980;5.646;2023-03-01T23:54:23;5.6;54.3
78696;SHT31;68030;51.980;5.646;2023-03-01T23:56:55;5.5;54.7
78696;SHT31;68030;51.980;5.646;2023-03-01T23:59:25;5.5;55.2
